METAR Data
IDs: Format: Raw Decoded Include TAF

Data at: 0311 UTC 19 Oct 2021

KBRO 190253Z 00000KT 10SM CLR 21/17 A3004 RMK AO2 SLP171 T02110172 53017 $